Portada
METAR-TAF:

METAR-TAF

Aeroports :

Dhahran, Aràbia Saudita

latitud: 26-16N, longitud: 050-09E, altitud: 26 m

Observació

L'informe es va fer fa 31 minuts, a les 15:00 UTC
Vent 9 kt del Nord-Est
Temperatura 26°C
Humitat 37%
Pressió 1015 hPa
Visibilitat 10 km o més
sense núvols per sota de 1500 mi sense presència de cumulonimbus.

METAR: OEDR 261500Z 05009KT CAVOK 26/10 Q1015

Hora: 18:31 (15:31 UTC)

Pronòstic

L'informe es va fer fa 7 hores i 1 minuts, a les 08:30 UTC
Pronòstic vàlid del 26 a les 12 UTC al 27 a les 18 UTC
Vent 14 kt del Sud-Est
Visibilitat: 8000 m
Evolucionant progressivament
l' 26 a les 18 UTC al 26 a les 20 UTC
Vent 16 kt del Sud
Visibilitat: 6000 m
Núvols disperses a una alçada de 4000 ft
Cel ennuvolat a una alçada de 8000 ft

TAF: OEDR 260830Z 2612/2718 14014KT 8000 NSC BECMG 2618/2620 17016KT 6000 SCT040 BKN080

Observacions i pronòstics meteorològics de més de 4000 aeroports (METAR i TAF).

Les estacions disponibles són els punts grocs i vermells al mapa.

Posi el ratolí al punt desitjat per veure el nom de l'estació.

Feu clic per veure les observacions i els pronòstics meteorològics.

Per canviar el mapa: feu clic els botons verds amb una creu de color negre per apropar; al botó verd amb un guió per allunyar la imatge; o en les fletxes verdes per a mapes adjacents.


METAR-TAF: